sensor_id;sensor_type;location;lat;lon;timestamp;pressure;altitude;pressure_sealevel;temperature;humidity
21877;BME280;11103;43.788;23.710;2022-11-20T00:01:18;69552.94;;;10.69;100.00
21877;BME280;11103;43.788;23.710;2022-11-20T00:03:45;68233.69;;;10.70;100.00
21877;BME280;11103;43.788;23.710;2022-11-20T00:06:13;67739.97;;;10.70;100.00
21877;BME280;11103;43.788;23.710;2022-11-20T00:08:39;70753.47;;;10.74;100.00
21877;BME280;11103;43.788;23.710;2022-11-20T00:11:09;71140.50;;;10.71;100.00
21877;BME280;11103;43.788;23.710;2022-11-20T00:13:35;70930.34;;;10.71;100.00
21877;BME280;11103;43.788;23.710;2022-11-20T00:16:02;71251.88;;;10.67;100.00
21877;BME280;11103;43.788;23.710;2022-11-20T00:18:28;74076.91;;;10.70;100.00
21877;BME280;11103;43.788;23.710;2022-11-20T00:21:00;73451.69;;;10.74;100.00
21877;BME280;11103;43.788;23.710;2022-11-20T00:23:26;75207.91;;;10.73;100.00
21877;BME280;11103;43.788;23.710;2022-11-20T00:25:52;74374.09;;;10.77;100.00
21877;BME280;11103;43.788;23.710;2022-11-20T00:28:17;76901.06;;;10.83;100.00
21877;BME280;11103;43.788;23.710;2022-11-20T00:30:43;79982.31;;;10.71;100.00
21877;BME280;11103;43.788;23.710;2022-11-20T00:33:10;81244.50;;;10.68;100.00
21877;BME280;11103;43.788;23.710;2022-11-20T00:35:35;79422.03;;;10.66;100.00
21877;BME280;11103;43.788;23.710;2022-11-20T00:38:00;77247.16;;;10.75;100.00
21877;BME280;11103;43.788;23.710;2022-11-20T00:40:28;81872.56;;;10.75;100.00
21877;BME280;11103;43.788;23.710;2022-11-20T00:42:53;81690.41;;;10.77;100.00
21877;BME280;11103;43.788;23.710;2022-11-20T00:45:19;85497.88;;;10.79;100.00
21877;BME280;11103;43.788;23.710;2022-11-20T00:47:44;84008.56;;;10.75;100.00
21877;BME280;11103;43.788;23.710;2022-11-20T00:50:10;87725.53;;;10.67;100.00
21877;BME280;11103;43.788;23.710;2022-11-20T00:52:35;87735.13;;;10.58;100.00
21877;BME280;11103;43.788;23.710;2022-11-20T00:55:00;85758.13;;;10.55;100.00
21877;BME280;11103;43.788;23.710;2022-11-20T00:57:26;88041.09;;;10.52;100.00
21877;BME280;11103;43.788;23.710;2022-11-20T00:59:51;86698.56;;;10.59;100.00
21877;BME280;11103;43.788;23.710;2022-11-20T01:02:17;92855.31;;;10.42;100.00
21877;BME280;11103;43.788;23.710;2022-11-20T01:04:42;93628.56;;;10.42;100.00
21877;BME280;11103;43.788;23.710;2022-11-20T01:07:08;94894.69;;;10.19;100.00
21877;BME280;11103;43.788;23.710;2022-11-20T01:09:33;96898.03;;;10.16;100.00
21877;BME280;11103;43.788;23.710;2022-11-20T01:11:58;93326.03;;;10.34;100.00
21877;BME280;11103;43.788;23.710;2022-11-20T01:14:25;90517.47;;;10.38;100.00
21877;BME280;11103;43.788;23.710;2022-11-20T01:16:51;90615.44;;;10.40;100.00
21877;BME280;11103;43.788;23.710;2022-11-20T01:19:20;94550.53;;;10.40;100.00
21877;BME280;11103;43.788;23.710;2022-11-20T01:21:48;94293.69;;;10.47;100.00
21877;BME280;11103;43.788;23.710;2022-11-20T01:24:16;98455.03;;;10.56;100.00
21877;BME280;11103;43.788;23.710;2022-11-20T01:26:44;106556.97;;;10.61;100.00
21877;BME280;11103;43.788;23.710;2022-11-20T01:29:16;111318.75;;;10.54;100.00
21877;BME280;11103;43.788;23.710;2022-11-20T01:31:42;105604.72;;;10.49;100.00
21877;BME280;11103;43.788;23.710;2022-11-20T01:34:13;105676.00;;;10.62;100.00
21877;BME280;11103;43.788;23.710;2022-11-20T01:36:40;105591.19;;;10.63;100.00
21877;BME280;11103;43.788;23.710;2022-11-20T01:39:14;107053.38;;;10.57;100.00
21877;BME280;11103;43.788;23.710;2022-11-20T01:41:40;109505.31;;;10.60;100.00
21877;BME280;11103;43.788;23.710;2022-11-20T01:45:00;108144.88;;;10.62;100.00
21877;BME280;11103;43.788;23.710;2022-11-20T01:47:37;111265.78;;;10.53;100.00
21877;BME280;11103;43.788;23.710;2022-11-20T01:50:18;110320.22;;;10.52;100.00
21877;BME280;11103;43.788;23.710;2022-11-20T01:52:53;114551.13;;;10.57;100.00
21877;BME280;11103;43.788;23.710;2022-11-20T01:55:24;116389.25;;;10.48;100.00
21877;BME280;11103;43.788;23.710;2022-11-20T01:57:51;116100.13;;;10.38;100.00
21877;BME280;11103;43.788;23.710;2022-11-20T02:00:19;120535.13;;;10.34;100.00
21877;BME280;11103;43.788;23.710;2022-11-20T02:02:50;115424.38;;;10.28;100.00
21877;BME280;11103;43.788;23.710;2022-11-20T02:08:11;108988.56;;;10.32;100.00
21877;BME280;11103;43.788;23.710;2022-11-20T02:10:37;110041.09;;;10.24;100.00
21877;BME280;11103;43.788;23.710;2022-11-20T02:13:03;108624.81;;;10.00;100.00
21877;BME280;11103;43.788;23.710;2022-11-20T02:15:52;104073.59;;;9.93;100.00
21877;BME280;11103;43.788;23.710;2022-11-20T02:18:19;98032.50;;;9.91;100.00
21877;BME280;11103;43.788;23.710;2022-11-20T02:20:47;95745.25;;;9.89;100.00
21877;BME280;11103;43.788;23.710;2022-11-20T02:26:05;95460.59;;;10.03;100.00
21877;BME280;11103;43.788;23.710;2022-11-20T02:28:33;97204.50;;;9.94;100.00
21877;BME280;11103;43.788;23.710;2022-11-20T02:30:58;94535.63;;;9.86;100.00
21877;BME280;11103;43.788;23.710;2022-11-20T02:33:23;91843.84;;;9.89;100.00
21877;BME280;11103;43.788;23.710;2022-11-20T02:35:49;92113.28;;;9.90;100.00
21877;BME280;11103;43.788;23.710;2022-11-20T02:38:15;89559.63;;;9.95;100.00
21877;BME280;11103;43.788;23.710;2022-11-20T02:40:41;89057.34;;;9.94;100.00
21877;BME280;11103;43.788;23.710;2022-11-20T02:43:06;92648.31;;;10.01;100.00
21877;BME280;11103;43.788;23.710;2022-11-20T02:45:32;96751.28;;;10.03;100.00
21877;BME280;11103;43.788;23.710;2022-11-20T02:47:57;94924.72;;;9.90;100.00
21877;BME280;11103;43.788;23.710;2022-11-20T02:50:23;89080.03;;;9.97;100.00
21877;BME280;11103;43.788;23.710;2022-11-20T02:52:48;90304.69;;;9.96;100.00
21877;BME280;11103;43.788;23.710;2022-11-20T02:55:14;91233.19;;;9.74;100.00
21877;BME280;11103;43.788;23.710;2022-11-20T02:57:39;88619.16;;;9.77;100.00
21877;BME280;11103;43.788;23.710;2022-11-20T03:00:05;86783.16;;;9.91;100.00
21877;BME280;11103;43.788;23.710;2022-11-20T03:02:32;88082.78;;;9.81;100.00
21877;BME280;11103;43.788;23.710;2022-11-20T03:04:58;84810.13;;;9.70;100.00
21877;BME280;11103;43.788;23.710;2022-11-20T03:07:23;79927.97;;;9.54;100.00
21877;BME280;11103;43.788;23.710;2022-11-20T03:09:49;78965.28;;;9.69;100.00
21877;BME280;11103;43.788;23.710;2022-11-20T03:12:14;79051.19;;;9.74;100.00
21877;BME280;11103;43.788;23.710;2022-11-20T03:14:40;80621.47;;;9.80;100.00
21877;BME280;11103;43.788;23.710;2022-11-20T03:17:05;83787.97;;;9.74;100.00
21877;BME280;11103;43.788;23.710;2022-11-20T03:19:30;82679.00;;;9.73;100.00
21877;BME280;11103;43.788;23.710;2022-11-20T03:21:56;82043.94;;;9.75;100.00
21877;BME280;11103;43.788;23.710;2022-11-20T03:24:21;83934.31;;;9.79;100.00
21877;BME280;11103;43.788;23.710;2022-11-20T03:26:47;83695.06;;;9.81;100.00
21877;BME280;11103;43.788;23.710;2022-11-20T03:29:12;85587.25;;;9.71;100.00
21877;BME280;11103;43.788;23.710;2022-11-20T03:31:39;87575.94;;;9.87;100.00
21877;BME280;11103;43.788;23.710;2022-11-20T03:34:06;87470.81;;;9.84;100.00
21877;BME280;11103;43.788;23.710;2022-11-20T03:36:31;88418.88;;;9.81;100.00
21877;BME280;11103;43.788;23.710;2022-11-20T03:38:58;87654.44;;;9.69;100.00
21877;BME280;11103;43.788;23.710;2022-11-20T03:41:28;83652.47;;;9.76;100.00
21877;BME280;11103;43.788;23.710;2022-11-20T03:44:00;83448.34;;;9.85;100.00
21877;BME280;11103;43.788;23.710;2022-11-20T03:46:26;84609.72;;;9.88;100.00
21877;BME280;11103;43.788;23.710;2022-11-20T03:48:52;92390.88;;;9.94;100.00
21877;BME280;11103;43.788;23.710;2022-11-20T03:51:23;92157.94;;;9.64;100.00
21877;BME280;11103;43.788;23.710;2022-11-20T03:53:51;83886.00;;;9.67;100.00
21877;BME280;11103;43.788;23.710;2022-11-20T03:56:19;81122.72;;;9.68;100.00
21877;BME280;11103;43.788;23.710;2022-11-20T03:58:46;82329.41;;;9.58;100.00
21877;BME280;11103;43.788;23.710;2022-11-20T04:01:14;80303.09;;;9.56;100.00
21877;BME280;11103;43.788;23.710;2022-11-20T04:03:41;80205.84;;;9.68;100.00
21877;BME280;11103;43.788;23.710;2022-11-20T04:06:13;78269.94;;;9.47;100.00
21877;BME280;11103;43.788;23.710;2022-11-20T04:08:38;78336.75;;;9.65;100.00
21877;BME280;11103;43.788;23.710;2022-11-20T04:11:11;79464.25;;;9.54;100.00
21877;BME280;11103;43.788;23.710;2022-11-20T04:13:36;79106.09;;;9.61;100.00
21877;BME280;11103;43.788;23.710;2022-11-20T04:16:03;80819.31;;;9.53;100.00
21877;BME280;11103;43.788;23.710;2022-11-20T04:18:28;79219.22;;;9.46;100.00
21877;BME280;11103;43.788;23.710;2022-11-20T04:20:56;79622.69;;;9.49;100.00
21877;BME280;11103;43.788;23.710;2022-11-20T04:23:22;77845.66;;;9.45;100.00
21877;BME280;11103;43.788;23.710;2022-11-20T04:25:47;78365.84;;;9.40;100.00
21877;BME280;11103;43.788;23.710;2022-11-20T04:28:13;75873.53;;;9.50;100.00
21877;BME280;11103;43.788;23.710;2022-11-20T04:30:38;75864.44;;;9.47;100.00
21877;BME280;11103;43.788;23.710;2022-11-20T04:33:04;76233.38;;;9.54;100.00
21877;BME280;11103;43.788;23.710;2022-11-20T04:35:29;77605.06;;;9.52;100.00
21877;BME280;11103;43.788;23.710;2022-11-20T04:37:54;77189.91;;;9.51;100.00
21877;BME280;11103;43.788;23.710;2022-11-20T04:40:20;78968.25;;;9.50;100.00
21877;BME280;11103;43.788;23.710;2022-11-20T04:42:45;78902.47;;;9.40;100.00
21877;BME280;11103;43.788;23.710;2022-11-20T04:45:11;78977.53;;;9.38;100.00
21877;BME280;11103;43.788;23.710;2022-11-20T04:47:36;78824.31;;;9.43;100.00
21877;BME280;11103;43.788;23.710;2022-11-20T04:50:02;76910.50;;;9.40;100.00
21877;BME280;11103;43.788;23.710;2022-11-20T04:52:27;77136.06;;;9.41;100.00
21877;BME280;11103;43.788;23.710;2022-11-20T04:54:53;74863.88;;;9.44;100.00
21877;BME280;11103;43.788;23.710;2022-11-20T04:57:19;76871.84;;;9.51;100.00
21877;BME280;11103;43.788;23.710;2022-11-20T04:59:44;80338.66;;;9.52;100.00
21877;BME280;11103;43.788;23.710;2022-11-20T05:02:10;80224.56;;;9.49;100.00
21877;BME280;11103;43.788;23.710;2022-11-20T05:04:36;78776.44;;;9.47;100.00
21877;BME280;11103;43.788;23.710;2022-11-20T05:07:02;77626.63;;;9.47;100.00
21877;BME280;11103;43.788;23.710;2022-11-20T05:09:27;77588.25;;;9.39;100.00
21877;BME280;11103;43.788;23.710;2022-11-20T05:11:53;77262.31;;;9.47;100.00
21877;BME280;11103;43.788;23.710;2022-11-20T05:14:18;76584.22;;;9.55;100.00
21877;BME280;11103;43.788;23.710;2022-11-20T05:16:44;77114.44;;;9.58;100.00
21877;BME280;11103;43.788;23.710;2022-11-20T05:19:09;76786.75;;;9.73;100.00
21877;BME280;11103;43.788;23.710;2022-11-20T05:21:34;79465.75;;;9.78;100.00
21877;BME280;11103;43.788;23.710;2022-11-20T05:24:00;85711.06;;;9.78;100.00
21877;BME280;11103;43.788;23.710;2022-11-20T05:26:25;94644.03;;;9.68;100.00
21877;BME280;11103;43.788;23.710;2022-11-20T05:28:51;95798.00;;;9.74;100.00
21877;BME280;11103;43.788;23.710;2022-11-20T05:31:23;92741.31;;;9.66;100.00
21877;BME280;11103;43.788;23.710;2022-11-20T05:33:48;88248.00;;;9.40;100.00
21877;BME280;11103;43.788;23.710;2022-11-20T05:36:14;84997.88;;;9.57;100.00
21877;BME280;11103;43.788;23.710;2022-11-20T05:38:41;85340.16;;;9.51;100.00
21877;BME280;11103;43.788;23.710;2022-11-20T05:41:10;83909.72;;;9.58;100.00
21877;BME280;11103;43.788;23.710;2022-11-20T05:43:37;84552.91;;;9.61;100.00
21877;BME280;11103;43.788;23.710;2022-11-20T05:46:04;85463.53;;;9.64;100.00
21877;BME280;11103;43.788;23.710;2022-11-20T05:48:31;85677.75;;;9.58;100.00
21877;BME280;11103;43.788;23.710;2022-11-20T05:50:58;83621.19;;;9.62;100.00
21877;BME280;11103;43.788;23.710;2022-11-20T05:53:24;82405.91;;;9.67;100.00
21877;BME280;11103;43.788;23.710;2022-11-20T05:56:00;82049.44;;;9.68;100.00
21877;BME280;11103;43.788;23.710;2022-11-20T05:58:26;87741.53;;;9.72;100.00
21877;BME280;11103;43.788;23.710;2022-11-20T06:00:52;85605.59;;;9.62;100.00
21877;BME280;11103;43.788;23.710;2022-11-20T06:03:17;80853.63;;;9.73;100.00
21877;BME280;11103;43.788;23.710;2022-11-20T06:05:43;83203.19;;;9.52;100.00
21877;BME280;11103;43.788;23.710;2022-11-20T06:08:08;80319.41;;;9.58;100.00
21877;BME280;11103;43.788;23.710;2022-11-20T06:10:33;76688.34;;;9.56;100.00
21877;BME280;11103;43.788;23.710;2022-11-20T06:12:59;79910.56;;;9.47;100.00
21877;BME280;11103;43.788;23.710;2022-11-20T06:15:24;78417.31;;;9.50;100.00
21877;BME280;11103;43.788;23.710;2022-11-20T06:17:54;77086.00;;;9.42;100.00
21877;BME280;11103;43.788;23.710;2022-11-20T06:20:20;75784.63;;;9.41;100.00
21877;BME280;11103;43.788;23.710;2022-11-20T06:22:46;74312.88;;;9.17;100.00
21877;BME280;11103;43.788;23.710;2022-11-20T06:25:11;66595.75;;;9.19;100.00
21877;BME280;11103;43.788;23.710;2022-11-20T06:27:37;64130.38;;;9.24;100.00
21877;BME280;11103;43.788;23.710;2022-11-20T06:30:03;63590.41;;;9.24;100.00
21877;BME280;11103;43.788;23.710;2022-11-20T06:32:29;59378.41;;;9.16;100.00
21877;BME280;11103;43.788;23.710;2022-11-20T06:34:54;55719.31;;;9.09;100.00
21877;BME280;11103;43.788;23.710;2022-11-20T06:37:20;54119.16;;;9.20;100.00
21877;BME280;11103;43.788;23.710;2022-11-20T06:39:45;53102.81;;;9.19;100.00
21877;BME280;11103;43.788;23.710;2022-11-20T06:42:10;55560.59;;;9.19;100.00
21877;BME280;11103;43.788;23.710;2022-11-20T06:44:36;54440.66;;;9.20;100.00
21877;BME280;11103;43.788;23.710;2022-11-20T06:47:01;50705.13;;;9.09;100.00
21877;BME280;11103;43.788;23.710;2022-11-20T06:49:27;47157.69;;;9.07;100.00
21877;BME280;11103;43.788;23.710;2022-11-20T06:51:52;43301.44;;;9.05;100.00
21877;BME280;11103;43.788;23.710;2022-11-20T06:54:17;41460.63;;;9.08;100.00
21877;BME280;11103;43.788;23.710;2022-11-20T06:56:46;38182.63;;;9.07;100.00
21877;BME280;11103;43.788;23.710;2022-11-20T06:59:12;37715.13;;;9.06;100.00
21877;BME280;11103;43.788;23.710;2022-11-20T07:01:38;36346.94;;;8.98;100.00
21877;BME280;11103;43.788;23.710;2022-11-20T07:04:03;36668.63;;;9.01;100.00
21877;BME280;11103;43.788;23.710;2022-11-20T07:06:29;36255.66;;;9.02;100.00
21877;BME280;11103;43.788;23.710;2022-11-20T07:08:54;36047.94;;;9.03;100.00
21877;BME280;11103;43.788;23.710;2022-11-20T07:11:20;34950.41;;;9.08;100.00
21877;BME280;11103;43.788;23.710;2022-11-20T07:13:45;34893.41;;;8.98;100.00
21877;BME280;11103;43.788;23.710;2022-11-20T07:16:11;30794.63;;;9.11;100.00
21877;BME280;11103;43.788;23.710;2022-11-20T07:18:36;31744.41;;;9.19;100.00
21877;BME280;11103;43.788;23.710;2022-11-20T07:21:07;33634.47;;;9.21;100.00
21877;BME280;11103;43.788;23.710;2022-11-20T07:23:34;32806.94;;;8.94;100.00
21877;BME280;11103;43.788;23.710;2022-11-20T07:26:07;32707.47;;;9.10;100.00
21877;BME280;11103;43.788;23.710;2022-11-20T07:28:33;33702.56;;;9.25;100.00
21877;BME280;11103;43.788;23.710;2022-11-20T07:30:58;34811.75;;;9.26;100.00
21877;BME280;11103;43.788;23.710;2022-11-20T07:33:24;36182.22;;;9.30;100.00
21877;BME280;11103;43.788;23.710;2022-11-20T07:35:50;36283.53;;;9.18;100.00
21877;BME280;11103;43.788;23.710;2022-11-20T07:38:17;35419.50;;;9.36;100.00
21877;BME280;11103;43.788;23.710;2022-11-20T07:40:42;37481.09;;;9.36;100.00
21877;BME280;11103;43.788;23.710;2022-11-20T07:43:08;40035.50;;;9.41;100.00
21877;BME280;11103;43.788;23.710;2022-11-20T07:45:33;42448.09;;;9.37;100.00
21877;BME280;11103;43.788;23.710;2022-11-20T07:47:59;40038.47;;;9.34;100.00
21877;BME280;11103;43.788;23.710;2022-11-20T07:50:24;40595.13;;;9.41;100.00
21877;BME280;11103;43.788;23.710;2022-11-20T07:52:50;41539.88;;;9.40;100.00
21877;BME280;11103;43.788;23.710;2022-11-20T07:55:15;42524.44;;;9.50;100.00
21877;BME280;11103;43.788;23.710;2022-11-20T07:57:41;44338.69;;;9.53;100.00
21877;BME280;11103;43.788;23.710;2022-11-20T08:00:08;42840.78;;;9.65;100.00
21877;BME280;11103;43.788;23.710;2022-11-20T08:02:40;47856.81;;;9.64;100.00
21877;BME280;11103;43.788;23.710;2022-11-20T08:05:07;50357.91;;;9.61;100.00
21877;BME280;11103;43.788;23.710;2022-11-20T08:07:40;50857.84;;;9.61;100.00
21877;BME280;11103;43.788;23.710;2022-11-20T08:10:08;47968.16;;;9.50;100.00
21877;BME280;11103;43.788;23.710;2022-11-20T08:12:33;47202.19;;;9.42;100.00
21877;BME280;11103;43.788;23.710;2022-11-20T08:15:17;48461.34;;;9.61;100.00
21877;BME280;11103;43.788;23.710;2022-11-20T08:17:43;48442.69;;;9.69;100.00
21877;BME280;11103;43.788;23.710;2022-11-20T08:20:08;49036.56;;;9.87;100.00
21877;BME280;11103;43.788;23.710;2022-11-20T08:22:34;52507.38;;;9.79;100.00
21877;BME280;11103;43.788;23.710;2022-11-20T08:25:00;49921.91;;;9.64;100.00
21877;BME280;11103;43.788;23.710;2022-11-20T08:27:25;48242.16;;;9.79;100.00
21877;BME280;11103;43.788;23.710;2022-11-20T08:29:51;51315.88;;;9.79;100.00
21877;BME280;11103;43.788;23.710;2022-11-20T08:32:17;52303.09;;;9.84;100.00
21877;BME280;11103;43.788;23.710;2022-11-20T08:34:42;53165.66;;;9.89;100.00
21877;BME280;11103;43.788;23.710;2022-11-20T08:37:08;49715.78;;;9.96;100.00
21877;BME280;11103;43.788;23.710;2022-11-20T08:39:33;49837.19;;;9.89;100.00
21877;BME280;11103;43.788;23.710;2022-11-20T08:41:59;50236.97;;;9.91;100.00
21877;BME280;11103;43.788;23.710;2022-11-20T08:44:24;47839.22;;;10.12;100.00
21877;BME280;11103;43.788;23.710;2022-11-20T08:46:50;49952.91;;;10.05;100.00
21877;BME280;11103;43.788;23.710;2022-11-20T08:49:15;52370.06;;;9.99;100.00
21877;BME280;11103;43.788;23.710;2022-11-20T08:51:41;51078.06;;;10.13;100.00
21877;BME280;11103;43.788;23.710;2022-11-20T08:54:07;51262.06;;;10.25;100.00
21877;BME280;11103;43.788;23.710;2022-11-20T08:56:33;55076.84;;;10.19;100.00
21877;BME280;11103;43.788;23.710;2022-11-20T08:58:58;53846.34;;;10.26;100.00
21877;BME280;11103;43.788;23.710;2022-11-20T09:01:27;57457.19;;;10.21;100.00
21877;BME280;11103;43.788;23.710;2022-11-20T09:03:57;54178.38;;;10.15;100.00
21877;BME280;11103;43.788;23.710;2022-11-20T09:06:22;51687.72;;;10.32;100.00
21877;BME280;11103;43.788;23.710;2022-11-20T09:08:52;51721.28;;;10.38;100.00
21877;BME280;11103;43.788;23.710;2022-11-20T09:11:18;54648.97;;;10.50;100.00
21877;BME280;11103;43.788;23.710;2022-11-20T09:13:43;58372.53;;;10.68;100.00
21877;BME280;11103;43.788;23.710;2022-11-20T09:16:09;63339.94;;;10.69;100.00
21877;BME280;11103;43.788;23.710;2022-11-20T09:18:36;71517.97;;;10.66;100.00
21877;BME280;11103;43.788;23.710;2022-11-20T09:21:04;73596.47;;;10.67;100.00
21877;BME280;11103;43.788;23.710;2022-11-20T09:23:35;69742.00;;;10.66;100.00
21877;BME280;11103;43.788;23.710;2022-11-20T09:26:05;68176.75;;;10.35;100.00
21877;BME280;11103;43.788;23.710;2022-11-20T09:28:32;66689.75;;;10.54;100.00
21877;BME280;11103;43.788;23.710;2022-11-20T09:30:58;64525.50;;;10.42;100.00
21877;BME280;11103;43.788;23.710;2022-11-20T09:33:24;61445.97;;;10.43;100.00
21877;BME280;11103;43.788;23.710;2022-11-20T09:35:50;59456.66;;;10.42;100.00
21877;BME280;11103;43.788;23.710;2022-11-20T09:38:15;62728.56;;;10.54;100.00
21877;BME280;11103;43.788;23.710;2022-11-20T09:40:46;65864.72;;;10.44;100.00
21877;BME280;11103;43.788;23.710;2022-11-20T09:46:20;57318.19;;;10.38;100.00
21877;BME280;11103;43.788;23.710;2022-11-20T09:51:40;49731.09;;;10.46;100.00
21877;BME280;11103;43.788;23.710;2022-11-20T09:54:16;50243.56;;;10.60;100.00
21877;BME280;11103;43.788;23.710;2022-11-20T09:56:46;55915.31;;;10.58;100.00
21877;BME280;11103;43.788;23.710;2022-11-20T09:59:43;56472.41;;;10.65;100.00
21877;BME280;11103;43.788;23.710;2022-11-20T10:02:25;58927.84;;;10.70;100.00
21877;BME280;11103;43.788;23.710;2022-11-20T10:05:09;59629.00;;;10.57;100.00
21877;BME280;11103;43.788;23.710;2022-11-20T10:07:43;55889.22;;;10.58;100.00
21877;BME280;11103;43.788;23.710;2022-11-20T10:10:31;55896.00;;;10.67;100.00
21877;BME280;11103;43.788;23.710;2022-11-20T10:19:31;58269.00;;;10.83;100.00
21877;BME280;11103;43.788;23.710;2022-11-20T10:30:15;62316.84;;;10.62;100.00
21877;BME280;11103;43.788;23.710;2022-11-20T10:32:43;60569.72;;;10.58;100.00
21877;BME280;11103;43.788;23.710;2022-11-20T10:37:43;59157.09;;;10.44;100.00
21877;BME280;11103;43.788;23.710;2022-11-20T10:40:27;57105.94;;;10.54;100.00
21877;BME280;11103;43.788;23.710;2022-11-20T10:43:00;55050.09;;;10.58;100.00
21877;BME280;11103;43.788;23.710;2022-11-20T10:45:38;55622.91;;;10.63;100.00
21877;BME280;11103;43.788;23.710;2022-11-20T10:48:10;58134.41;;;10.63;100.00
21877;BME280;11103;43.788;23.710;2022-11-20T10:50:47;59548.63;;;10.59;100.00
21877;BME280;11103;43.788;23.710;2022-11-20T10:56:05;67574.78;;;10.54;100.00
21877;BME280;11103;43.788;23.710;2022-11-20T11:01:19;67523.53;;;10.65;100.00
21877;BME280;11103;43.788;23.710;2022-11-20T11:03:56;72945.47;;;10.46;100.00
21877;BME280;11103;43.788;23.710;2022-11-20T11:06:39;73204.56;;;9.97;100.00
21877;BME280;11103;43.788;23.710;2022-11-20T11:09:17;73367.44;;;10.24;100.00
21877;BME280;11103;43.788;23.710;2022-11-20T11:11:46;71073.03;;;10.45;100.00
21877;BME280;11103;43.788;23.710;2022-11-20T11:14:13;71187.63;;;10.40;100.00
21877;BME280;11103;43.788;23.710;2022-11-20T11:17:17;65956.16;;;10.32;100.00
21877;BME280;11103;43.788;23.710;2022-11-20T11:19:45;64933.00;;;10.39;100.00
21877;BME280;11103;43.788;23.710;2022-11-20T11:22:17;69160.38;;;10.31;100.00
21877;BME280;11103;43.788;23.710;2022-11-20T11:24:51;69491.00;;;10.22;100.00
21877;BME280;11103;43.788;23.710;2022-11-20T11:27:17;65993.19;;;10.33;100.00
21877;BME280;11103;43.788;23.710;2022-11-20T11:29:42;67457.31;;;10.12;100.00
21877;BME280;11103;43.788;23.710;2022-11-20T11:32:12;66078.03;;;10.22;100.00
21877;BME280;11103;43.788;23.710;2022-11-20T11:34:38;59982.25;;;10.25;100.00
21877;BME280;11103;43.788;23.710;2022-11-20T11:37:09;56756.75;;;10.40;100.00
21877;BME280;11103;43.788;23.710;2022-11-20T11:39:38;63767.84;;;10.34;100.00
21877;BME280;11103;43.788;23.710;2022-11-20T11:42:11;64556.34;;;10.37;100.00
21877;BME280;11103;43.788;23.710;2022-11-20T11:44:44;66245.13;;;10.29;100.00
21877;BME280;11103;43.788;23.710;2022-11-20T11:47:49;64666.03;;;10.37;100.00
21877;BME280;11103;43.788;23.710;2022-11-20T11:50:28;63291.22;;;10.36;100.00
21877;BME280;11103;43.788;23.710;2022-11-20T11:53:21;61169.53;;;10.39;100.00
21877;BME280;11103;43.788;23.710;2022-11-20T11:56:09;66105.44;;;10.28;100.00
21877;BME280;11103;43.788;23.710;2022-11-20T11:58:47;66180.53;;;10.38;100.00
21877;BME280;11103;43.788;23.710;2022-11-20T12:04:13;71459.66;;;10.19;100.00
21877;BME280;11103;43.788;23.710;2022-11-20T12:06:51;69576.19;;;10.16;100.00
21877;BME280;11103;43.788;23.710;2022-11-20T12:09:20;64116.97;;;10.39;100.00
21877;BME280;11103;43.788;23.710;2022-11-20T12:11:58;63874.94;;;10.33;100.00
21877;BME280;11103;43.788;23.710;2022-11-20T12:16:57;61890.72;;;10.33;100.00
21877;BME280;11103;43.788;23.710;2022-11-20T12:19:23;60615.69;;;10.38;100.00
21877;BME280;11103;43.788;23.710;2022-11-20T12:25:00;62962.78;;;10.38;100.00
21877;BME280;11103;43.788;23.710;2022-11-20T12:30:14;63023.19;;;10.44;100.00
21877;BME280;11103;43.788;23.710;2022-11-20T12:38:51;67456.59;;;10.60;100.00
21877;BME280;11103;43.788;23.710;2022-11-20T12:41:55;68991.97;;;10.64;100.00
21877;BME280;11103;43.788;23.710;2022-11-20T12:57:00;71087.94;;;10.55;100.00
21877;BME280;11103;43.788;23.710;2022-11-20T13:02:36;59674.63;;;10.05;100.00
21877;BME280;11103;43.788;23.710;2022-11-20T13:05:43;55413.19;;;10.21;100.00
21877;BME280;11103;43.788;23.710;2022-11-20T13:08:22;52595.44;;;10.19;100.00
21877;BME280;11103;43.788;23.710;2022-11-20T13:11:32;49802.75;;;10.20;100.00
21877;BME280;11103;43.788;23.710;2022-11-20T13:16:48;42670.44;;;10.16;100.00
21877;BME280;11103;43.788;23.710;2022-11-20T13:19:16;44240.50;;;10.17;100.00
21877;BME280;11103;43.788;23.710;2022-11-20T13:21:47;44747.41;;;10.13;100.00
21877;BME280;11103;43.788;23.710;2022-11-20T13:26:45;43885.16;;;10.09;100.00
21877;BME280;11103;43.788;23.710;2022-11-20T13:29:16;43490.44;;;10.19;100.00
21877;BME280;11103;43.788;23.710;2022-11-20T13:31:47;43368.13;;;10.19;100.00
21877;BME280;11103;43.788;23.710;2022-11-20T13:34:27;42855.09;;;10.11;100.00
21877;BME280;11103;43.788;23.710;2022-11-20T13:36:54;42640.53;;;10.13;100.00
21877;BME280;11103;43.788;23.710;2022-11-20T13:39:25;41095.63;;;10.04;100.00
21877;BME280;11103;43.788;23.710;2022-11-20T13:42:28;37584.34;;;9.95;100.00
21877;BME280;11103;43.788;23.710;2022-11-20T13:44:51;35189.16;;;9.97;100.00
21877;BME280;11103;43.788;23.710;2022-11-20T13:47:25;31741.91;;;10.08;100.00
21877;BME280;11103;43.788;23.710;2022-11-20T13:49:52;31500.69;;;9.99;100.00
21877;BME280;11103;43.788;23.710;2022-11-20T13:58:05;33563.50;;;10.14;100.00
21877;BME280;11103;43.788;23.710;2022-11-20T14:00:32;30611.66;;;10.11;100.00
21877;BME280;11103;43.788;23.710;2022-11-20T14:05:45;24567.75;;;10.11;100.00
21877;BME280;11103;43.788;23.710;2022-11-20T14:08:21;20750.75;;;10.13;100.00
21877;BME280;11103;43.788;23.710;2022-11-20T14:10:48;18284.38;;;10.12;100.00
21877;BME280;11103;43.788;23.710;2022-11-20T14:13:18;17317.06;;;10.14;100.00
21877;BME280;11103;43.788;23.710;2022-11-20T14:15:45;17220.84;;;10.14;100.00